Airport View

Enter AWOS ICAO identifier for current METAR.

ex. KFNL

KGGP 181115Z AUTO 17009KT 4SM -RA OVC010 01/01 A2988 RMK AO2 P0001

18 Jan 2020 11:39

Frequency: 118.5

Phone: 574-737-7310

Other Area AWOS: KGUS - KMCX - KOKK - KRCR

TAF AMD KGUS 180943Z 1809/1909 11005KT 9000 -RA BKN009 620459 510103 QNH2997INS TEMPO 1809/1812 4800 -FZRA OVC007 690001 620208 BECMG 1811/1812 20015G25KT 3200 -RA OVC005 620809 520003 QNH2971INS BECMG 1819/1820 26025G35KT 4800 -SN BLSN BKN003 OVC008 620039 520003 QNH2976INS BECMG 1822/1823 28025G35KT 6000 -SN BLSN OVC015 620159 520003 QNH2984INS BECMG 1905/1906 29015G25KT 9999 NSW SCT030 QNH3000INS TX07/1818Z TNM05/1903Z